createdAt,value
2018-07-27T00:00:04.025Z,4.30
2018-07-27T00:02:31.478Z,4.17
2018-07-27T00:04:58.899Z,5.10
2018-07-27T00:07:26.339Z,4.67
2018-07-27T00:09:53.763Z,4.13
2018-07-27T00:12:21.207Z,3.80
2018-07-27T00:14:48.648Z,3.77
2018-07-27T00:17:16.082Z,5.33
2018-07-27T00:19:43.660Z,4.30
2018-07-27T00:22:11.095Z,4.00
2018-07-27T00:24:38.497Z,3.73
2018-07-27T00:27:05.907Z,4.00
2018-07-27T00:29:33.333Z,4.40
2018-07-27T00:32:00.783Z,3.70
2018-07-27T00:34:28.189Z,3.90
2018-07-27T00:36:55.623Z,3.97
2018-07-27T00:39:23.143Z,3.80
2018-07-27T00:41:50.560Z,4.77
2018-07-27T00:44:17.974Z,4.53
2018-07-27T00:46:45.428Z,3.97
2018-07-27T00:49:12.887Z,4.50
2018-07-27T00:51:40.454Z,3.93
2018-07-27T00:54:07.874Z,4.53
2018-07-27T00:56:35.383Z,3.87
2018-07-27T00:59:02.843Z,4.37
2018-07-27T01:01:30.323Z,4.03
2018-07-27T01:03:57.870Z,5.73
2018-07-27T01:06:25.386Z,4.87
2018-07-27T01:08:52.871Z,4.57
2018-07-27T01:11:20.326Z,3.90
2018-07-27T01:13:47.771Z,8.20
2018-07-27T01:16:15.264Z,3.70
2018-07-27T01:18:42.747Z,4.60
2018-07-27T01:21:10.211Z,4.40
2018-07-27T01:23:37.640Z,4.43
2018-07-27T01:26:05.099Z,4.60
2018-07-27T01:28:32.635Z,4.53
2018-07-27T01:31:00.061Z,4.90
2018-07-27T01:33:27.549Z,4.10
2018-07-27T01:35:55.103Z,4.10
2018-07-27T01:38:22.576Z,5.07
2018-07-27T01:40:50.107Z,4.90
2018-07-27T01:43:17.548Z,4.30
2018-07-27T01:45:44.972Z,3.90
2018-07-27T01:48:12.498Z,4.57
2018-07-27T01:50:40.020Z,5.20
2018-07-27T01:53:07.557Z,4.87
2018-07-27T01:55:34.995Z,4.90
2018-07-27T01:58:02.451Z,4.97
2018-07-27T02:00:29.982Z,4.03
2018-07-27T02:02:57.439Z,5.20
2018-07-27T02:05:24.952Z,5.30
2018-07-27T02:07:52.411Z,4.63
2018-07-27T02:10:20.053Z,5.03
2018-07-27T02:12:47.488Z,5.07
2018-07-27T02:15:14.945Z,4.70
2018-07-27T02:17:42.412Z,4.73
2018-07-27T02:20:09.847Z,4.53
2018-07-27T02:22:37.321Z,4.90
2018-07-27T02:25:04.863Z,5.07
2018-07-27T02:27:32.256Z,5.00
2018-07-27T02:29:59.759Z,4.40
2018-07-27T02:32:27.241Z,4.80
2018-07-27T02:34:54.696Z,5.13
2018-07-27T02:37:22.147Z,4.80
2018-07-27T02:39:49.669Z,4.40
2018-07-27T02:42:17.162Z,5.40
2018-07-27T02:44:44.595Z,4.63
2018-07-27T02:47:12.043Z,5.10
2018-07-27T02:49:39.487Z,4.80
2018-07-27T02:52:07.099Z,4.97
2018-07-27T02:54:34.539Z,4.90
2018-07-27T02:57:01.981Z,4.83
2018-07-27T02:59:29.411Z,5.30
2018-07-27T03:01:56.827Z,6.80
2018-07-27T03:04:24.324Z,9.90
2018-07-27T03:06:51.764Z,8.00
2018-07-27T03:09:19.180Z,6.30
2018-07-27T03:11:46.783Z,8.03
2018-07-27T03:14:14.187Z,5.90
2018-07-27T03:16:41.603Z,6.00
2018-07-27T03:19:09.162Z,6.10
2018-07-27T03:21:36.611Z,5.10
2018-07-27T03:24:04.031Z,6.00
2018-07-27T03:26:31.428Z,6.00
2018-07-27T03:28:58.871Z,5.53
2018-07-27T03:31:26.291Z,5.80
2018-07-27T03:33:53.887Z,7.27
2018-07-27T03:36:21.471Z,7.53
2018-07-27T03:38:49.019Z,5.10
2018-07-27T03:41:16.425Z,5.33
2018-07-27T03:43:43.915Z,6.47
2018-07-27T03:46:11.293Z,7.70
2018-07-27T03:48:38.736Z,5.40
2018-07-27T03:51:06.205Z,5.77
2018-07-27T03:53:33.610Z,6.20
2018-07-27T03:56:01.059Z,6.10
2018-07-27T03:58:28.515Z,5.50
2018-07-27T04:00:55.943Z,5.23
2018-07-27T04:03:23.364Z,6.13
2018-07-27T04:05:50.805Z,11.00
2018-07-27T04:08:18.244Z,6.07
2018-07-27T04:10:45.680Z,6.10
2018-07-27T04:13:13.167Z,5.80
2018-07-27T04:15:40.599Z,6.93
2018-07-27T04:18:08.085Z,6.73
2018-07-27T04:20:35.504Z,5.53
2018-07-27T04:23:02.963Z,6.20
2018-07-27T04:25:30.359Z,5.87
2018-07-27T04:27:57.795Z,6.13
2018-07-27T04:30:25.218Z,6.80
2018-07-27T04:32:52.615Z,7.07
2018-07-27T04:35:20.196Z,7.37
2018-07-27T04:37:47.692Z,8.53
2018-07-27T04:40:15.128Z,7.43
2018-07-27T04:42:42.586Z,7.20
2018-07-27T04:45:10.134Z,6.23
2018-07-27T04:47:37.667Z,6.70
2018-07-27T04:50:05.751Z,10.73
2018-07-27T04:52:33.214Z,6.90
2018-07-27T04:55:00.625Z,6.80
2018-07-27T04:57:28.049Z,6.70
2018-07-27T04:59:55.579Z,8.63
2018-07-27T05:02:23.463Z,7.20
2018-07-27T05:04:51.015Z,7.27
2018-07-27T05:07:18.431Z,6.63
2018-07-27T05:09:45.893Z,9.80
2018-07-27T05:12:13.339Z,9.37
2018-07-27T05:14:40.846Z,8.30
2018-07-27T05:17:08.381Z,7.93
2018-07-27T05:19:35.892Z,8.30
2018-07-27T05:22:03.423Z,7.10
2018-07-27T05:24:30.878Z,11.23
2018-07-27T05:26:58.288Z,7.27
2018-07-27T05:29:25.725Z,8.70
2018-07-27T05:31:53.179Z,7.90
2018-07-27T05:34:20.800Z,7.70
2018-07-27T05:36:48.251Z,8.50
2018-07-27T05:39:15.719Z,7.30
2018-07-27T05:41:43.131Z,8.60
2018-07-27T05:44:10.576Z,7.90
2018-07-27T05:46:38.003Z,8.37
2018-07-27T05:49:05.421Z,8.40
2018-07-27T05:51:32.860Z,7.03
2018-07-27T05:54:00.391Z,8.47
2018-07-27T05:56:28.127Z,9.73
2018-07-27T05:58:55.566Z,7.40
2018-07-27T06:01:23.051Z,7.80
2018-07-27T06:03:50.676Z,8.33
2018-07-27T06:06:18.116Z,9.60
2018-07-27T06:08:45.611Z,9.40
2018-07-27T06:11:13.176Z,8.33
2018-07-27T06:13:40.584Z,11.23
2018-07-27T06:16:08.801Z,9.30
2018-07-27T06:18:36.234Z,9.13
2018-07-27T06:21:04.780Z,8.03
2018-07-27T06:23:32.272Z,11.70
2018-07-27T06:25:59.724Z,8.33
2018-07-27T06:28:27.256Z,9.03
2018-07-27T06:30:55.775Z,8.27
2018-07-27T06:33:23.519Z,10.93
2018-07-27T06:35:52.299Z,8.30
2018-07-27T06:38:19.791Z,12.47
2018-07-27T06:40:47.233Z,9.30
2018-07-27T06:43:14.779Z,9.57
2018-07-27T06:45:42.245Z,10.23
2018-07-27T06:48:15.431Z,12.73
2018-07-27T06:50:42.831Z,10.20
2018-07-27T06:53:10.258Z,7.57
2018-07-27T06:55:37.718Z,8.47
2018-07-27T06:58:05.172Z,8.83
2018-07-27T07:00:32.619Z,7.10
2018-07-27T07:03:01.108Z,8.00
2018-07-27T07:05:28.575Z,8.67
2018-07-27T07:07:56.016Z,9.07
2018-07-27T07:10:23.531Z,8.80
2018-07-27T07:12:50.966Z,8.00
2018-07-27T07:15:18.360Z,7.17
2018-07-27T07:17:45.927Z,8.50
2018-07-27T07:20:13.377Z,9.70
2018-07-27T07:22:40.843Z,9.90
2018-07-27T07:25:08.378Z,8.20
2018-07-27T07:27:35.833Z,8.07
2018-07-27T07:30:03.580Z,7.63
2018-07-27T07:32:31.086Z,8.70
2018-07-27T07:34:58.577Z,8.10
2018-07-27T07:37:26.063Z,9.07
2018-07-27T07:39:53.507Z,8.60
2018-07-27T07:42:20.947Z,8.87
2018-07-27T07:44:49.107Z,8.43
2018-07-27T07:47:16.523Z,8.03
2018-07-27T07:49:43.975Z,8.67
2018-07-27T07:52:11.411Z,7.70
2018-07-27T07:54:38.924Z,8.50
2018-07-27T07:57:06.359Z,9.00
2018-07-27T07:59:33.888Z,7.53
2018-07-27T08:02:01.407Z,9.23
2018-07-27T08:04:28.835Z,18.33
2018-07-27T08:06:56.287Z,8.53
2018-07-27T08:09:23.711Z,7.80
2018-07-27T08:11:51.149Z,7.73
2018-07-27T08:14:18.690Z,8.40
2018-07-27T08:16:46.142Z,7.37
2018-07-27T08:19:13.555Z,8.47
2018-07-27T08:21:41.063Z,8.00
2018-07-27T08:24:08.504Z,7.23
2018-07-27T08:26:46.915Z,7.10
2018-07-27T08:29:19.437Z,6.97
2018-07-27T08:31:48.162Z,8.00
2018-07-27T08:34:16.138Z,8.07
2018-07-27T08:36:43.679Z,8.10
2018-07-27T08:39:12.384Z,6.97
2018-07-27T08:41:40.260Z,8.00
2018-07-27T08:44:08.635Z,7.80
2018-07-27T08:46:36.403Z,7.87
2018-07-27T08:49:03.857Z,6.83
2018-07-27T08:51:31.436Z,7.10
2018-07-27T08:53:59.052Z,8.27
2018-07-27T08:56:26.536Z,7.53
2018-07-27T08:58:54.131Z,9.30
2018-07-27T09:01:21.865Z,7.47
2018-07-27T09:03:49.468Z,7.23
2018-07-27T09:06:17.395Z,7.80
2018-07-27T09:08:44.807Z,9.90
2018-07-27T09:11:12.367Z,7.83
2018-07-27T09:13:39.797Z,7.43
2018-07-27T09:16:07.527Z,8.47
2018-07-27T09:18:34.979Z,6.90
2018-07-27T09:21:02.421Z,9.27
2018-07-27T09:23:29.859Z,6.40
2018-07-27T09:25:57.671Z,6.30
2018-07-27T09:28:25.278Z,5.97
2018-07-27T09:30:52.991Z,6.30
2018-07-27T09:33:20.451Z,5.87
2018-07-27T09:35:49.009Z,6.53
2018-07-27T09:38:16.527Z,6.70
2018-07-27T09:40:44.025Z,6.90
2018-07-27T09:43:11.465Z,7.33
2018-07-27T09:45:38.980Z,7.23
2018-07-27T09:48:06.183Z,7.07
2018-07-27T09:50:33.634Z,7.20
2018-07-27T09:53:01.099Z,7.83
2018-07-27T09:55:28.599Z,7.10
2018-07-27T09:57:56.023Z,7.53
2018-07-27T10:00:29.243Z,6.80
2018-07-27T10:02:56.822Z,7.27
2018-07-27T10:05:24.219Z,9.73
2018-07-27T10:07:51.632Z,6.63
2018-07-27T10:10:19.123Z,7.03
2018-07-27T10:12:46.653Z,6.53
2018-07-27T10:15:14.067Z,7.03
2018-07-27T10:17:41.516Z,7.27
2018-07-27T10:20:08.954Z,6.40
2018-07-27T10:22:36.359Z,7.07
2018-07-27T10:25:03.792Z,6.70
2018-07-27T10:27:31.229Z,7.47
2018-07-27T10:29:58.655Z,6.20
2018-07-27T10:32:26.088Z,6.43
2018-07-27T10:34:53.523Z,6.00
2018-07-27T10:37:20.964Z,5.87
2018-07-27T10:39:48.448Z,5.83
2018-07-27T10:42:15.895Z,6.07
2018-07-27T10:44:43.287Z,5.50
2018-07-27T10:47:10.733Z,6.00
2018-07-27T10:49:38.159Z,5.70
2018-07-27T10:52:05.835Z,5.93
2018-07-27T10:54:33.321Z,4.70
2018-07-27T10:57:00.784Z,5.70
2018-07-27T10:59:28.279Z,3.47
2018-07-27T11:01:55.739Z,7.30
2018-07-27T11:04:23.202Z,5.53
2018-07-27T11:06:50.599Z,4.67
2018-07-27T11:09:18.020Z,5.27
2018-07-27T11:11:45.431Z,4.27
2018-07-27T11:14:12.884Z,4.50
2018-07-27T11:16:40.365Z,4.90
2018-07-27T11:19:08.008Z,4.07
2018-07-27T11:21:35.456Z,4.03
2018-07-27T11:24:02.944Z,4.80
2018-07-27T11:26:30.359Z,6.27
2018-07-27T11:28:57.919Z,4.60
2018-07-27T11:31:25.433Z,5.20
2018-07-27T11:33:52.873Z,4.17
2018-07-27T11:36:20.324Z,4.80
2018-07-27T11:38:47.735Z,4.77
2018-07-27T11:41:15.055Z,4.13
2018-07-27T11:43:42.293Z,4.97
2018-07-27T11:46:09.559Z,4.53
2018-07-27T11:48:36.784Z,4.67
2018-07-27T11:51:04.022Z,5.23
2018-07-27T11:53:31.262Z,5.20
2018-07-27T11:55:58.519Z,4.20
2018-07-27T11:58:25.737Z,4.60
2018-07-27T12:00:52.999Z,4.17
2018-07-27T12:03:20.235Z,5.23
2018-07-27T12:05:47.455Z,4.67
2018-07-27T12:08:14.762Z,7.50
2018-07-27T12:10:41.997Z,4.60
2018-07-27T12:13:09.316Z,4.00
2018-07-27T12:15:36.574Z,4.40
2018-07-27T12:18:03.924Z,4.43
2018-07-27T12:20:31.604Z,4.33
2018-07-27T12:22:58.950Z,3.93
2018-07-27T12:25:26.239Z,4.73
2018-07-27T12:27:53.459Z,4.17
2018-07-27T12:30:20.703Z,4.70
2018-07-27T12:32:47.960Z,3.90
2018-07-27T12:35:15.616Z,4.10
2018-07-27T12:37:42.863Z,4.50
2018-07-27T12:40:10.133Z,5.00
2018-07-27T12:42:37.405Z,4.83
2018-07-27T12:45:04.802Z,4.27
2018-07-27T12:47:32.060Z,4.00
2018-07-27T12:49:59.296Z,5.40
2018-07-27T12:52:26.618Z,4.30
2018-07-27T12:54:53.979Z,4.47
2018-07-27T12:57:21.199Z,4.73
2018-07-27T12:59:48.468Z,4.10
2018-07-27T13:02:15.687Z,4.60
2018-07-27T13:04:42.895Z,4.90
2018-07-27T13:07:10.379Z,5.03
2018-07-27T13:09:37.691Z,4.93
2018-07-27T13:12:04.983Z,4.23
2018-07-27T13:16:59.503Z,4.70
2018-07-27T13:19:26.735Z,4.20
2018-07-27T13:21:53.976Z,4.83
2018-07-27T13:24:21.267Z,4.33
2018-07-27T13:26:48.532Z,4.03
2018-07-27T13:29:15.759Z,4.40
2018-07-27T13:31:44.765Z,4.50
2018-07-27T13:37:04.717Z,4.50
2018-07-27T13:39:33.048Z,5.50
2018-07-27T13:42:01.733Z,6.20
2018-07-27T13:44:30.096Z,4.60
2018-07-27T13:46:57.563Z,4.67
2018-07-27T13:49:25.399Z,5.73
2018-07-27T13:51:53.144Z,4.17
2018-07-27T13:54:20.656Z,5.40
2018-07-27T13:56:48.233Z,5.50
2018-07-27T13:59:16.619Z,5.17
2018-07-27T14:01:44.204Z,4.90
2018-07-27T14:04:11.611Z,4.83
2018-07-27T14:06:39.252Z,5.00
2018-07-27T14:09:08.639Z,5.03
2018-07-27T14:11:36.085Z,5.20
2018-07-27T14:14:04.003Z,4.30
2018-07-27T14:16:31.443Z,4.33
2018-07-27T14:18:58.975Z,4.57
2018-07-27T14:21:26.540Z,6.20
2018-07-27T14:23:53.973Z,4.33
2018-07-27T14:26:21.999Z,4.17
2018-07-27T14:28:49.515Z,4.77
2018-07-27T14:31:17.020Z,4.97
2018-07-27T14:33:44.455Z,4.27
2018-07-27T14:36:11.995Z,5.00
2018-07-27T14:38:39.428Z,4.40
2018-07-27T14:41:06.920Z,4.60
2018-07-27T14:43:34.488Z,4.70
2018-07-27T14:46:02.128Z,4.97
2018-07-27T14:48:29.647Z,5.13
2018-07-27T14:50:57.139Z,4.50
2018-07-27T14:53:24.611Z,4.87
2018-07-27T14:55:52.135Z,4.03
2018-07-27T14:58:19.730Z,4.73
2018-07-27T15:00:47.259Z,4.57
2018-07-27T15:03:14.851Z,4.43
2018-07-27T15:05:42.339Z,4.37
2018-07-27T15:08:09.830Z,5.03
2018-07-27T15:10:37.327Z,4.93
2018-07-27T15:13:04.935Z,4.73
2018-07-27T15:15:32.412Z,5.30
2018-07-27T15:17:59.874Z,5.23
2018-07-27T15:20:27.306Z,4.93
2018-07-27T15:22:54.875Z,4.50
2018-07-27T15:25:22.427Z,4.87
2018-07-27T15:27:49.903Z,7.33
2018-07-27T15:30:17.371Z,4.77
2018-07-27T15:32:44.814Z,6.67
2018-07-27T15:35:12.243Z,5.70
2018-07-27T15:37:39.659Z,5.43
2018-07-27T15:40:07.219Z,5.10
2018-07-27T15:42:34.673Z,5.63
2018-07-27T15:45:02.144Z,5.87
2018-07-27T15:47:29.692Z,5.80
2018-07-27T15:49:57.172Z,4.90
2018-07-27T15:52:24.639Z,5.53
2018-07-27T15:54:52.079Z,6.80
2018-07-27T15:57:19.530Z,6.40
2018-07-27T15:59:46.975Z,5.97
2018-07-27T16:02:14.372Z,5.37
2018-07-27T16:04:41.945Z,6.47
2018-07-27T16:07:09.577Z,6.57
2018-07-27T16:09:36.984Z,5.73
2018-07-27T16:12:04.419Z,6.23
2018-07-27T16:14:31.834Z,6.30
2018-07-27T16:16:59.279Z,6.33
2018-07-27T16:19:28.120Z,5.50
2018-07-27T16:21:56.438Z,6.50
2018-07-27T16:24:23.912Z,6.00
2018-07-27T16:26:51.366Z,6.63
2018-07-27T16:29:18.923Z,6.67
2018-07-27T16:31:47.398Z,6.77
2018-07-27T16:34:15.036Z,6.70
2018-07-27T16:36:42.648Z,6.30
2018-07-27T16:39:10.552Z,7.23
2018-07-27T16:41:38.083Z,6.30
2018-07-27T16:44:05.788Z,6.73
2018-07-27T16:46:33.312Z,7.30
2018-07-27T16:49:00.883Z,6.03
2018-07-27T16:51:29.159Z,6.33
2018-07-27T16:53:57.718Z,6.90
2018-07-27T16:56:25.156Z,7.00
2018-07-27T16:58:52.711Z,7.13
2018-07-27T17:01:20.551Z,7.07
2018-07-27T17:03:48.004Z,6.93
2018-07-27T17:06:15.551Z,7.93
2018-07-27T17:08:43.028Z,6.97
2018-07-27T17:11:10.524Z,7.10
2018-07-27T17:13:37.981Z,6.73
2018-07-27T17:16:05.461Z,7.27
2018-07-27T17:18:32.949Z,8.10
2018-07-27T17:21:00.367Z,6.73
2018-07-27T17:23:27.825Z,6.70
2018-07-27T17:25:55.350Z,7.10
2018-07-27T17:28:22.877Z,7.70
2018-07-27T17:30:50.326Z,7.50
2018-07-27T17:33:17.740Z,7.20
2018-07-27T17:35:45.176Z,8.27
2018-07-27T17:38:12.683Z,7.33
2018-07-27T17:40:40.180Z,7.50
2018-07-27T17:43:07.706Z,7.20
2018-07-27T17:45:35.144Z,8.10
2018-07-27T17:48:02.589Z,8.60
2018-07-27T17:50:30.039Z,7.83
2018-07-27T17:52:58.460Z,8.07
2018-07-27T17:55:25.879Z,7.30
2018-07-27T17:57:53.914Z,7.40
2018-07-27T18:00:21.364Z,7.80
2018-07-27T18:02:48.955Z,7.13
2018-07-27T18:05:17.477Z,7.57
2018-07-27T18:07:44.979Z,7.43
2018-07-27T18:10:12.320Z,7.70
2018-07-27T18:12:39.824Z,8.37
2018-07-27T18:15:07.119Z,8.10
2018-07-27T18:17:34.368Z,7.80
2018-07-27T18:20:01.643Z,7.97
2018-07-27T18:22:29.234Z,7.50
2018-07-27T18:24:56.507Z,7.93
2018-07-27T18:27:23.791Z,7.83
2018-07-27T18:29:51.142Z,9.10
2018-07-27T18:32:18.598Z,8.40
2018-07-27T18:34:46.539Z,8.60
2018-07-27T18:37:13.968Z,7.97
2018-07-27T18:39:41.324Z,8.03
2018-07-27T18:42:08.589Z,8.03
2018-07-27T18:44:35.849Z,8.70
2018-07-27T18:47:03.131Z,7.53
2018-07-27T18:49:30.383Z,8.40
2018-07-27T18:51:58.339Z,7.70
2018-07-27T18:54:25.593Z,7.70
2018-07-27T18:56:52.931Z,7.87
2018-07-27T18:59:20.178Z,9.40
2018-07-27T19:01:47.441Z,8.40
2018-07-27T19:04:14.751Z,9.13
2018-07-27T19:06:42.108Z,9.07
2018-07-27T19:09:11.916Z,8.53
2018-07-27T19:11:39.404Z,9.77
2018-07-27T19:14:06.994Z,8.30
2018-07-27T19:16:34.332Z,8.07
2018-07-27T19:19:01.660Z,8.53
2018-07-27T19:21:29.775Z,8.43
2018-07-27T19:23:57.184Z,8.67
2018-07-27T19:26:25.384Z,9.50
2018-07-27T19:28:52.703Z,8.13
2018-07-27T19:31:20.171Z,8.90
2018-07-27T19:33:49.176Z,7.90
2018-07-27T19:36:17.384Z,8.17
2018-07-27T19:38:44.904Z,7.77
2018-07-27T19:41:14.074Z,9.03
2018-07-27T19:43:41.744Z,7.90
2018-07-27T19:46:09.079Z,9.10
2018-07-27T19:48:36.320Z,10.00
2018-07-27T19:51:03.568Z,8.83
2018-07-27T19:53:30.832Z,7.80
2018-07-27T19:55:58.098Z,9.00
2018-07-27T19:58:26.203Z,7.90
2018-07-27T20:00:53.464Z,8.30
2018-07-27T20:03:20.716Z,7.80
2018-07-27T20:05:47.993Z,7.33
2018-07-27T20:08:15.286Z,7.60
2018-07-27T20:10:42.573Z,7.87
2018-07-27T20:13:09.837Z,7.60
2018-07-27T20:15:37.044Z,7.40
2018-07-27T20:18:04.366Z,7.60
2018-07-27T20:20:31.632Z,7.87
2018-07-27T20:22:58.869Z,7.93
2018-07-27T20:25:26.157Z,6.80
2018-07-27T20:27:53.445Z,7.47
2018-07-27T20:30:20.703Z,7.03
2018-07-27T20:32:47.946Z,7.00
2018-07-27T20:35:15.184Z,10.57
2018-07-27T20:37:42.427Z,7.23
2018-07-27T20:40:09.735Z,10.80
2018-07-27T20:42:37.071Z,8.10
2018-07-27T20:45:06.603Z,8.80
2018-07-27T20:47:34.043Z,8.63
2018-07-27T20:50:01.330Z,8.13
2018-07-27T20:52:28.575Z,9.07
2018-07-27T20:54:55.975Z,8.03
2018-07-27T20:57:23.416Z,7.73
2018-07-27T20:59:50.829Z,8.30
2018-07-27T21:02:18.280Z,8.37
2018-07-27T21:04:45.723Z,7.83
2018-07-27T21:07:13.156Z,8.00
2018-07-27T21:09:40.607Z,7.93
2018-07-27T21:12:08.091Z,8.33
2018-07-27T21:14:35.516Z,7.97
2018-07-27T21:17:02.983Z,7.73
2018-07-27T21:19:30.496Z,8.43
2018-07-27T21:21:57.940Z,8.30
2018-07-27T21:24:25.321Z,8.47
2018-07-27T21:26:52.759Z,7.70
2018-07-27T21:29:20.256Z,8.13
2018-07-27T21:31:47.731Z,7.77
2018-07-27T21:34:15.243Z,8.23
2018-07-27T21:36:42.743Z,7.70
2018-07-27T21:39:12.155Z,6.50
2018-07-27T21:41:39.675Z,7.57
2018-07-27T21:44:07.223Z,8.30
2018-07-27T21:46:34.860Z,7.77
2018-07-27T21:49:02.327Z,7.20
2018-07-27T21:51:29.811Z,7.27
2018-07-27T21:53:57.226Z,7.57
2018-07-27T21:56:24.676Z,7.87
2018-07-27T21:58:52.202Z,8.07
2018-07-27T22:01:19.660Z,7.63
2018-07-27T22:03:47.229Z,7.23
2018-07-27T22:06:14.707Z,9.00
2018-07-27T22:08:42.241Z,8.63
2018-07-27T22:11:09.695Z,8.07
2018-07-27T22:13:37.152Z,8.30
2018-07-27T22:16:04.584Z,8.57
2018-07-27T22:18:32.109Z,7.60
2018-07-27T22:20:59.515Z,8.37
2018-07-27T22:23:26.943Z,8.23
2018-07-27T22:25:54.391Z,8.60
2018-07-27T22:28:21.763Z,9.23
2018-07-27T22:30:49.179Z,7.97
2018-07-27T22:33:16.649Z,7.90
2018-07-27T22:35:44.175Z,7.97
2018-07-27T22:38:11.589Z,7.97
2018-07-27T22:40:39.032Z,8.57
2018-07-27T22:43:08.483Z,7.40
2018-07-27T22:45:35.899Z,7.87
2018-07-27T22:48:04.622Z,8.13
2018-07-27T22:50:32.095Z,9.00
2018-07-27T22:52:59.680Z,8.20
2018-07-27T22:55:28.220Z,7.50
2018-07-27T22:57:55.714Z,8.10
2018-07-27T23:00:23.125Z,7.37
2018-07-27T23:02:50.593Z,13.37
2018-07-27T23:05:18.012Z,19.60
2018-07-27T23:07:45.431Z,14.10
2018-07-27T23:10:12.962Z,9.20
2018-07-27T23:12:40.439Z,8.57
2018-07-27T23:15:09.789Z,8.80
2018-07-27T23:17:37.291Z,8.60
2018-07-27T23:20:07.258Z,8.70
2018-07-27T23:22:34.782Z,8.17
2018-07-27T23:25:02.245Z,8.40
2018-07-27T23:27:29.662Z,8.20
2018-07-27T23:29:57.168Z,8.30
2018-07-27T23:32:24.617Z,8.67
2018-07-27T23:34:52.067Z,9.90
2018-07-27T23:37:19.580Z,8.70
2018-07-27T23:39:47.305Z,7.60
2018-07-27T23:42:15.855Z,8.23
2018-07-27T23:44:43.250Z,8.77
2018-07-27T23:47:10.684Z,8.20
2018-07-27T23:49:38.129Z,7.53
2018-07-27T23:52:05.788Z,8.20
2018-07-27T23:54:33.231Z,9.37
2018-07-27T23:57:00.664Z,7.73
2018-07-27T23:59:28.131Z,8.70
